createdAt,value
2022-12-20T00:01:33.036Z,12.20
2022-12-20T00:04:05.538Z,12.30
2022-12-20T00:06:35.877Z,12.30
2022-12-20T00:09:06.170Z,12.30
2022-12-20T00:11:34.749Z,12.40
2022-12-20T00:14:03.087Z,12.40
2022-12-20T00:16:31.650Z,12.40
2022-12-20T00:19:03.540Z,12.40
2022-12-20T00:21:33.770Z,12.40
2022-12-20T00:24:02.240Z,12.40
2022-12-20T00:26:32.177Z,12.40
2022-12-20T00:29:01.802Z,12.30
2022-12-20T00:31:31.557Z,12.30
2022-12-20T00:34:02.255Z,12.20
2022-12-20T00:36:32.433Z,12.20
2022-12-20T00:39:01.598Z,12.20
2022-12-20T00:41:33.399Z,12.10
2022-12-20T00:44:01.790Z,12.10
2022-12-20T00:46:31.599Z,12.00
2022-12-20T00:49:01.937Z,12.00
2022-12-20T00:51:31.931Z,12.00
2022-12-20T00:54:00.516Z,12.00
2022-12-20T00:56:28.804Z,12.00
2022-12-20T00:58:59.794Z,12.00
2022-12-20T01:01:30.469Z,12.10
2022-12-20T01:03:59.317Z,12.10
2022-12-20T01:06:30.537Z,12.10
2022-12-20T01:08:59.737Z,12.20
2022-12-20T01:11:29.745Z,12.20
2022-12-20T01:14:02.095Z,12.30
2022-12-20T01:16:32.745Z,12.20
2022-12-20T01:19:01.784Z,12.20
2022-12-20T01:21:32.266Z,12.10
2022-12-20T01:24:00.751Z,12.10
2022-12-20T01:26:30.596Z,12.10
2022-12-20T01:29:00.367Z,12.10
2022-12-20T01:31:30.471Z,12.10
2022-12-20T01:33:59.434Z,12.10
2022-12-20T01:36:29.550Z,12.10
2022-12-20T01:39:00.573Z,12.10
2022-12-20T01:41:30.756Z,12.10
2022-12-20T01:44:01.410Z,12.00
2022-12-20T01:46:31.293Z,12.00
2022-12-20T01:49:06.778Z,11.90
2022-12-20T01:51:40.405Z,11.90
2022-12-20T01:54:14.274Z,11.80
2022-12-20T01:56:46.378Z,11.80
2022-12-20T01:59:15.013Z,11.70
2022-12-20T02:01:44.089Z,11.60
2022-12-20T02:04:13.381Z,11.70
2022-12-20T02:06:41.832Z,11.60
2022-12-20T02:09:12.039Z,11.60
2022-12-20T02:11:58.359Z,11.60
2022-12-20T02:14:40.705Z,11.50
2022-12-20T02:17:14.785Z,11.50
2022-12-20T02:20:20.341Z,11.40
2022-12-20T02:23:10.104Z,11.50
2022-12-20T02:25:53.406Z,11.50
2022-12-20T02:28:49.214Z,11.50
2022-12-20T02:31:22.286Z,11.40
2022-12-20T02:33:53.181Z,11.40
2022-12-20T02:36:21.931Z,11.30
2022-12-20T02:38:53.032Z,11.30
2022-12-20T02:41:25.726Z,11.30
2022-12-20T02:44:17.988Z,11.30
2022-12-20T02:46:49.407Z,11.30
2022-12-20T02:49:20.616Z,11.30
2022-12-20T02:51:52.037Z,11.20
2022-12-20T02:54:21.127Z,11.30
2022-12-20T02:56:56.119Z,11.30
2022-12-20T02:59:31.187Z,11.20
2022-12-20T03:02:01.703Z,11.20
2022-12-20T03:04:33.295Z,11.30
2022-12-20T03:07:03.042Z,11.30
2022-12-20T03:09:33.735Z,11.30
2022-12-20T03:12:02.262Z,11.30
2022-12-20T03:14:32.571Z,11.30
2022-12-20T03:17:04.618Z,11.30
2022-12-20T03:19:33.275Z,11.30
2022-12-20T03:22:01.490Z,11.30
2022-12-20T03:24:33.577Z,11.40
2022-12-20T03:27:02.545Z,11.40
2022-12-20T03:29:30.849Z,11.50
2022-12-20T03:31:59.143Z,11.50
2022-12-20T03:34:29.912Z,11.50
2022-12-20T03:36:58.177Z,11.50
2022-12-20T03:39:26.481Z,11.60
2022-12-20T03:41:56.671Z,11.50
2022-12-20T03:44:26.524Z,11.60
2022-12-20T03:46:55.637Z,11.60
2022-12-20T03:49:23.808Z,11.60
2022-12-20T03:51:54.635Z,11.50
2022-12-20T03:54:24.116Z,11.40
2022-12-20T03:57:14.493Z,11.50
2022-12-20T03:59:43.337Z,11.50
2022-12-20T04:02:15.265Z,11.50
2022-12-20T04:04:43.596Z,11.50
2022-12-20T04:07:13.169Z,11.60
2022-12-20T04:09:45.668Z,11.60
2022-12-20T04:12:15.136Z,11.60
2022-12-20T04:14:44.382Z,11.60
2022-12-20T04:17:13.991Z,11.70
2022-12-20T04:19:42.762Z,11.60
2022-12-20T04:22:12.315Z,11.70
2022-12-20T04:24:51.072Z,11.60
2022-12-20T04:27:24.227Z,11.70
2022-12-20T04:29:54.833Z,11.70
2022-12-20T04:32:24.063Z,11.70
2022-12-20T04:34:52.380Z,11.70
2022-12-20T04:37:22.925Z,11.70
2022-12-20T04:39:55.491Z,11.70
2022-12-20T04:42:43.998Z,11.70
2022-12-20T04:45:14.298Z,11.70
2022-12-20T04:47:42.752Z,11.60
2022-12-20T04:50:12.963Z,11.50
2022-12-20T04:53:02.904Z,11.50
2022-12-20T04:55:37.559Z,11.50
2022-12-20T04:58:07.851Z,11.50
2022-12-20T05:00:38.924Z,11.50
2022-12-20T05:03:19.996Z,11.60
2022-12-20T05:05:48.736Z,11.50
2022-12-20T05:08:19.413Z,11.60
2022-12-20T05:10:49.780Z,11.50
2022-12-20T05:13:18.214Z,11.50
2022-12-20T05:15:53.137Z,11.40
2022-12-20T05:18:25.780Z,11.30
2022-12-20T05:21:18.421Z,11.30
2022-12-20T05:24:19.596Z,11.40
2022-12-20T05:27:08.096Z,11.50
2022-12-20T05:29:36.581Z,11.60
2022-12-20T05:32:05.150Z,11.50
2022-12-20T05:34:36.768Z,11.60
2022-12-20T05:37:05.229Z,11.60
2022-12-20T05:39:37.124Z,11.60
2022-12-20T05:42:10.794Z,11.70
2022-12-20T05:44:39.272Z,11.70
2022-12-20T05:47:08.191Z,11.60
2022-12-20T05:49:38.234Z,11.60
2022-12-20T05:52:09.662Z,11.60
2022-12-20T05:54:41.774Z,11.60
2022-12-20T05:57:16.813Z,11.60
2022-12-20T05:59:45.237Z,11.60
2022-12-20T06:02:19.286Z,11.60
2022-12-20T06:04:50.747Z,11.50
2022-12-20T06:07:24.182Z,11.50
2022-12-20T06:09:58.704Z,11.50
2022-12-20T06:12:38.788Z,11.50
2022-12-20T06:15:09.181Z,11.50
2022-12-20T06:17:40.223Z,11.40
2022-12-20T06:20:09.685Z,11.20
2022-12-20T06:22:38.657Z,11.10
2022-12-20T06:25:09.539Z,11.00
2022-12-20T06:27:40.691Z,11.00
2022-12-20T06:30:15.125Z,10.90
2022-12-20T06:33:07.817Z,10.90
2022-12-20T06:35:36.092Z,10.90
2022-12-20T06:38:04.280Z,10.90
2022-12-20T06:40:37.386Z,10.70
2022-12-20T06:43:05.633Z,10.70
2022-12-20T06:45:41.002Z,10.70
2022-12-20T06:48:10.989Z,10.80
2022-12-20T06:50:39.964Z,10.80
2022-12-20T06:53:09.176Z,10.90
2022-12-20T06:55:40.152Z,11.00
2022-12-20T06:58:08.412Z,11.00
2022-12-20T07:00:39.119Z,11.10
2022-12-20T07:03:07.622Z,11.10
2022-12-20T07:05:36.234Z,11.20
2022-12-20T07:08:04.722Z,11.20
2022-12-20T07:10:34.380Z,11.30
2022-12-20T07:13:04.004Z,11.20
2022-12-20T07:15:32.600Z,11.30
2022-12-20T07:18:01.395Z,11.30
2022-12-20T07:20:29.611Z,11.20
2022-12-20T07:22:57.893Z,11.40
2022-12-20T07:25:26.224Z,11.40
2022-12-20T07:27:54.476Z,11.40
2022-12-20T07:30:24.303Z,11.30
2022-12-20T07:32:54.442Z,11.40
2022-12-20T07:35:22.684Z,11.40
2022-12-20T07:37:50.927Z,11.40
2022-12-20T07:40:19.191Z,11.40
2022-12-20T07:42:49.090Z,11.50
2022-12-20T07:45:17.728Z,11.50
2022-12-20T07:47:47.371Z,11.50
2022-12-20T07:50:15.894Z,11.50
2022-12-20T07:52:47.886Z,11.50
2022-12-20T07:55:16.407Z,11.50
2022-12-20T07:57:48.201Z,11.60
2022-12-20T08:00:18.723Z,11.60
2022-12-20T08:02:51.970Z,11.60
2022-12-20T08:05:20.383Z,11.50
2022-12-20T08:07:55.074Z,11.50
2022-12-20T08:10:27.381Z,11.50
2022-12-20T08:12:56.649Z,11.50
2022-12-20T08:15:25.208Z,11.50
2022-12-20T08:17:54.811Z,11.50
2022-12-20T08:20:23.060Z,11.60
2022-12-20T08:22:51.274Z,11.50
2022-12-20T08:25:20.377Z,11.40
2022-12-20T08:27:49.546Z,11.30
2022-12-20T08:30:18.593Z,11.40
2022-12-20T08:32:46.806Z,11.50
2022-12-20T08:35:16.591Z,11.40
2022-12-20T08:37:44.827Z,11.40
2022-12-20T08:40:13.639Z,11.40
2022-12-20T08:42:41.944Z,11.40
2022-12-20T08:45:10.912Z,11.50
2022-12-20T08:47:39.227Z,11.60
2022-12-20T08:50:08.588Z,11.60
2022-12-20T08:52:38.174Z,11.80
2022-12-20T08:55:07.435Z,11.80
2022-12-20T08:57:35.633Z,11.90
2022-12-20T09:00:05.266Z,11.90
2022-12-20T09:02:33.788Z,11.90
2022-12-20T09:05:02.102Z,12.00
2022-12-20T09:07:30.316Z,12.10
2022-12-20T09:09:59.856Z,12.20
2022-12-20T09:12:28.018Z,12.20
2022-12-20T09:14:56.152Z,12.10
2022-12-20T09:17:24.592Z,12.10
2022-12-20T09:19:52.966Z,12.20
2022-12-20T09:22:21.188Z,12.20
2022-12-20T09:24:49.392Z,12.30
2022-12-20T09:27:18.962Z,12.30
2022-12-20T09:29:47.102Z,12.30
2022-12-20T09:32:15.456Z,12.30
2022-12-20T09:34:43.631Z,12.30
2022-12-20T09:37:11.841Z,12.40
2022-12-20T09:39:39.992Z,12.40
2022-12-20T09:42:10.332Z,12.60
2022-12-20T09:44:42.383Z,12.70
2022-12-20T09:47:16.666Z,12.70
2022-12-20T09:49:48.466Z,12.80
2022-12-20T09:52:35.449Z,12.80
2022-12-20T09:55:16.240Z,12.90
2022-12-20T09:57:58.662Z,12.90
2022-12-20T10:00:28.335Z,13.10
2022-12-20T10:03:08.230Z,13.30
2022-12-20T10:05:46.628Z,13.30
2022-12-20T10:08:24.542Z,13.40
2022-12-20T10:10:59.528Z,13.50
2022-12-20T10:13:42.141Z,13.50
2022-12-20T10:16:27.841Z,13.40
2022-12-20T10:19:03.196Z,13.40
2022-12-20T10:21:41.762Z,13.50
2022-12-20T10:24:17.498Z,13.60
2022-12-20T10:26:46.863Z,13.70
2022-12-20T10:29:15.158Z,13.60
2022-12-20T10:31:44.827Z,13.50
2022-12-20T10:34:13.045Z,13.30
2022-12-20T10:36:41.920Z,13.20
2022-12-20T10:39:11.028Z,13.10
2022-12-20T10:41:51.810Z,13.10
2022-12-20T10:44:24.986Z,13.00
2022-12-20T10:46:56.831Z,12.90
2022-12-20T10:49:31.814Z,12.90
2022-12-20T10:52:02.835Z,12.80
2022-12-20T10:54:34.380Z,12.80
2022-12-20T10:57:05.081Z,12.80
2022-12-20T10:59:36.237Z,12.70
2022-12-20T11:02:33.260Z,12.90
2022-12-20T11:05:22.663Z,12.80
2022-12-20T11:10:45.926Z,12.60
2022-12-20T11:13:26.271Z,12.40
2022-12-20T11:16:01.362Z,12.40
2022-12-20T11:18:42.737Z,12.40
2022-12-20T11:21:27.727Z,12.40
2022-12-20T11:24:03.540Z,12.30
2022-12-20T11:26:45.173Z,12.30
2022-12-20T11:29:28.190Z,12.20
2022-12-20T11:32:06.368Z,12.10
2022-12-20T11:34:43.329Z,12.10
2022-12-20T11:37:20.877Z,12.10
2022-12-20T11:40:25.168Z,12.10
2022-12-20T11:43:05.163Z,12.20
2022-12-20T11:45:42.517Z,12.20
2022-12-20T11:48:30.967Z,12.30
2022-12-20T11:51:13.361Z,12.40
2022-12-20T11:53:50.262Z,12.40
2022-12-20T11:56:22.764Z,12.40
2022-12-20T11:58:55.228Z,12.50
2022-12-20T12:01:27.453Z,12.50
2022-12-20T12:04:06.078Z,12.50
2022-12-20T12:06:39.892Z,12.50
2022-12-20T12:09:16.731Z,12.50
2022-12-20T12:12:06.635Z,12.30
2022-12-20T12:14:46.781Z,12.10
2022-12-20T12:17:22.353Z,12.00
2022-12-20T12:19:51.857Z,12.00
2022-12-20T12:22:34.207Z,11.90
2022-12-20T12:25:09.898Z,11.90
2022-12-20T12:27:39.462Z,11.80
2022-12-20T12:30:13.090Z,11.80
2022-12-20T12:32:46.047Z,11.80
2022-12-20T12:35:40.113Z,11.80
2022-12-20T12:38:43.035Z,11.70
2022-12-20T12:41:54.311Z,11.60
2022-12-20T12:44:36.381Z,11.50
2022-12-20T12:47:12.672Z,11.50
2022-12-20T12:49:41.868Z,11.40
2022-12-20T12:52:40.973Z,11.30
2022-12-20T12:55:45.539Z,11.40
2022-12-20T12:58:35.172Z,11.40
2022-12-20T13:01:08.088Z,11.40
2022-12-20T13:03:42.602Z,11.40
2022-12-20T13:06:45.532Z,11.40
2022-12-20T13:09:36.260Z,11.40
2022-12-20T13:12:49.657Z,11.40
2022-12-20T13:15:53.152Z,11.40
2022-12-20T13:18:29.226Z,11.30
2022-12-20T13:21:34.709Z,11.20
2022-12-20T13:24:40.907Z,11.30
2022-12-20T13:27:32.010Z,11.30
2022-12-20T13:30:29.485Z,11.30
2022-12-20T13:33:23.469Z,11.30
2022-12-20T13:36:26.214Z,11.30
2022-12-20T13:39:02.271Z,11.50
2022-12-20T13:41:37.508Z,11.50
2022-12-20T13:44:34.268Z,11.50
2022-12-20T13:47:20.145Z,11.60
2022-12-20T13:49:48.449Z,11.70
2022-12-20T13:52:26.956Z,11.60
2022-12-20T13:54:58.188Z,11.60
2022-12-20T13:57:31.677Z,11.60
2022-12-20T14:00:07.296Z,11.70
2022-12-20T14:02:42.855Z,11.60
2022-12-20T14:05:18.472Z,11.60
2022-12-20T14:07:48.811Z,11.60
2022-12-20T14:10:21.823Z,11.60
2022-12-20T14:12:54.336Z,11.60
2022-12-20T14:15:28.770Z,11.60
2022-12-20T14:17:58.743Z,11.60
2022-12-20T14:20:32.812Z,11.70
2022-12-20T14:23:06.268Z,11.60
2022-12-20T14:25:46.991Z,11.60
2022-12-20T14:28:27.450Z,11.60
2022-12-20T14:30:56.972Z,11.40
2022-12-20T14:33:32.334Z,11.40
2022-12-20T14:36:09.854Z,11.50
2022-12-20T14:38:38.462Z,11.50
2022-12-20T14:41:07.549Z,11.50
2022-12-20T14:43:37.810Z,11.60
2022-12-20T14:46:19.582Z,11.60
2022-12-20T14:48:49.696Z,11.50
2022-12-20T14:51:22.134Z,11.40
2022-12-20T14:53:53.305Z,11.50
2022-12-20T14:56:31.333Z,11.50
2022-12-20T14:59:06.978Z,11.40
2022-12-20T15:01:41.753Z,11.40
2022-12-20T15:04:25.679Z,11.40
2022-12-20T15:06:53.983Z,11.40
2022-12-20T15:09:22.590Z,11.40
2022-12-20T15:11:51.582Z,11.40
2022-12-20T15:14:32.950Z,11.40
2022-12-20T15:17:01.183Z,11.40
2022-12-20T15:19:31.418Z,11.40
2022-12-20T15:21:59.847Z,11.40
2022-12-20T15:24:29.172Z,11.30
2022-12-20T15:26:57.777Z,11.40
2022-12-20T15:29:27.338Z,11.40
2022-12-20T15:32:04.988Z,11.30
2022-12-20T15:34:37.404Z,11.30
2022-12-20T15:37:06.381Z,11.30
2022-12-20T15:39:35.115Z,11.30
2022-12-20T15:42:06.708Z,11.20
2022-12-20T15:44:35.937Z,11.20
2022-12-20T15:47:04.532Z,11.20
2022-12-20T15:49:35.428Z,11.20
2022-12-20T15:52:03.649Z,11.20
2022-12-20T15:54:33.557Z,11.20
2022-12-20T15:57:03.504Z,11.20
2022-12-20T15:59:58.822Z,11.20
2022-12-20T16:02:24.129Z,11.30
2022-12-20T16:04:55.193Z,11.30
2022-12-20T16:07:24.271Z,11.20
2022-12-20T16:09:52.487Z,11.30
2022-12-20T16:12:24.443Z,11.20
2022-12-20T16:14:52.653Z,11.30
2022-12-20T16:17:20.835Z,11.30
2022-12-20T16:19:49.007Z,11.30
2022-12-20T16:22:20.857Z,11.30
2022-12-20T16:24:49.745Z,11.20
2022-12-20T16:27:18.020Z,11.20
2022-12-20T16:29:46.236Z,11.20
2022-12-20T16:32:16.576Z,11.30
2022-12-20T16:34:45.300Z,11.30
2022-12-20T16:37:13.723Z,11.30
2022-12-20T16:39:44.020Z,11.40
2022-12-20T16:42:14.949Z,11.40
2022-12-20T16:44:45.337Z,11.30
2022-12-20T16:47:15.111Z,11.20
2022-12-20T16:49:51.880Z,11.20
2022-12-20T16:52:22.010Z,11.30
2022-12-20T16:54:52.060Z,11.30
2022-12-20T16:57:21.229Z,11.30
2022-12-20T16:59:49.567Z,11.40
2022-12-20T17:02:26.425Z,11.20
2022-12-20T17:04:54.825Z,11.20
2022-12-20T17:07:23.446Z,11.30
2022-12-20T17:09:53.398Z,11.30
2022-12-20T17:12:23.713Z,11.30
2022-12-20T17:14:51.922Z,11.20
2022-12-20T17:17:20.478Z,11.30
2022-12-20T17:19:48.708Z,11.30
2022-12-20T17:22:24.798Z,11.30
2022-12-20T17:24:54.471Z,11.30
2022-12-20T17:27:22.774Z,11.30
2022-12-20T17:29:52.111Z,11.40
2022-12-20T17:32:22.395Z,11.40
2022-12-20T17:34:51.306Z,11.40
2022-12-20T17:37:20.860Z,11.40
2022-12-20T17:39:49.189Z,11.40
2022-12-20T17:42:18.722Z,11.40
2022-12-20T17:44:47.101Z,11.40
2022-12-20T17:47:16.939Z,11.30
2022-12-20T17:49:45.119Z,11.30
2022-12-20T17:52:15.033Z,11.30
2022-12-20T17:54:43.341Z,11.30
2022-12-20T17:57:15.583Z,11.40
2022-12-20T17:59:45.639Z,11.30
2022-12-20T18:02:21.495Z,11.30
2022-12-20T18:04:50.102Z,11.30
2022-12-20T18:07:18.592Z,11.30
2022-12-20T18:09:48.420Z,11.30
2022-12-20T18:12:17.180Z,11.20
2022-12-20T18:14:48.690Z,11.30
2022-12-20T18:17:17.475Z,11.20
2022-12-20T18:19:45.870Z,11.20
2022-12-20T18:22:14.586Z,11.20
2022-12-20T18:24:42.794Z,11.20
2022-12-20T18:27:10.985Z,11.20
2022-12-20T18:29:39.622Z,11.20
2022-12-20T18:32:09.292Z,11.20
2022-12-20T18:34:37.529Z,11.20
2022-12-20T18:37:05.959Z,11.20
2022-12-20T18:39:34.523Z,11.10
2022-12-20T18:42:02.934Z,11.20
2022-12-20T18:44:35.502Z,11.20
2022-12-20T18:47:04.127Z,11.20
2022-12-20T18:49:33.804Z,11.10
2022-12-20T18:52:01.987Z,11.10
2022-12-20T18:54:30.890Z,11.10
2022-12-20T18:56:59.189Z,11.10
2022-12-20T18:59:27.433Z,11.10
2022-12-20T19:01:55.727Z,11.20
2022-12-20T19:04:25.132Z,11.10
2022-12-20T19:06:55.032Z,11.10
2022-12-20T19:09:23.293Z,11.20
2022-12-20T19:11:56.592Z,11.20
2022-12-20T19:14:26.166Z,11.30
2022-12-20T19:16:54.808Z,11.30
2022-12-20T19:19:23.148Z,11.20
2022-12-20T19:21:51.396Z,11.20
2022-12-20T19:24:21.281Z,11.20
2022-12-20T19:26:49.483Z,11.30
2022-12-20T19:29:17.688Z,11.30
2022-12-20T19:31:46.193Z,11.30
2022-12-20T19:34:15.065Z,11.30
2022-12-20T19:36:45.200Z,11.30
2022-12-20T19:39:16.191Z,11.30
2022-12-20T19:42:05.966Z,11.20
2022-12-20T19:44:34.103Z,11.30
2022-12-20T19:47:05.073Z,11.30
2022-12-20T19:49:33.350Z,11.30
2022-12-20T19:52:01.527Z,11.30
2022-12-20T19:54:29.941Z,11.30
2022-12-20T19:56:59.617Z,11.20
2022-12-20T19:59:30.307Z,11.20
2022-12-20T20:01:58.700Z,11.20
2022-12-20T20:04:27.040Z,11.20
2022-12-20T20:06:56.373Z,11.30
2022-12-20T20:09:24.616Z,11.30
2022-12-20T20:11:53.053Z,11.30
2022-12-20T20:14:22.688Z,11.30
2022-12-20T20:16:51.009Z,11.20
2022-12-20T20:19:20.421Z,11.20
2022-12-20T20:21:49.223Z,11.20
2022-12-20T20:24:17.831Z,11.20
2022-12-20T20:26:46.055Z,11.20
2022-12-20T20:29:14.296Z,11.20
2022-12-20T20:31:43.934Z,11.20
2022-12-20T20:34:12.386Z,11.20
2022-12-20T20:36:40.653Z,11.10
2022-12-20T20:39:08.822Z,11.20
2022-12-20T20:41:37.075Z,11.20
2022-12-20T20:44:05.657Z,11.20
2022-12-20T20:46:34.026Z,11.20
2022-12-20T20:49:03.606Z,11.10
2022-12-20T20:51:31.852Z,11.10
2022-12-20T20:54:00.056Z,11.10
2022-12-20T20:56:28.239Z,11.10
2022-12-20T20:59:02.972Z,11.10
2022-12-20T21:01:34.390Z,11.10
2022-12-20T21:04:05.488Z,11.20
2022-12-20T21:06:40.516Z,11.20
2022-12-20T21:09:11.054Z,11.20
2022-12-20T21:11:39.478Z,11.30
2022-12-20T21:14:07.833Z,11.20
2022-12-20T21:16:36.666Z,11.20
2022-12-20T21:19:06.381Z,11.20
2022-12-20T21:21:34.544Z,11.20
2022-12-20T21:24:02.847Z,11.20
2022-12-20T21:26:31.297Z,11.30
2022-12-20T21:28:59.989Z,11.20
2022-12-20T21:31:28.766Z,11.20
2022-12-20T21:33:57.580Z,11.30
2022-12-20T21:36:28.807Z,11.30
2022-12-20T21:38:58.773Z,11.20
2022-12-20T21:41:28.844Z,11.30
2022-12-20T21:43:58.244Z,11.20
2022-12-20T21:46:27.798Z,11.30
2022-12-20T21:48:56.322Z,11.20
2022-12-20T21:51:26.292Z,11.40
2022-12-20T21:53:57.911Z,11.30
2022-12-20T21:56:28.038Z,11.20
2022-12-20T21:58:56.650Z,11.30
2022-12-20T22:01:27.368Z,11.20
2022-12-20T22:03:58.151Z,11.20
2022-12-20T22:06:28.030Z,11.20
2022-12-20T22:08:58.430Z,11.20
2022-12-20T22:11:26.843Z,11.20
2022-12-20T22:13:56.559Z,11.10
2022-12-20T22:16:26.257Z,11.20
2022-12-20T22:18:56.070Z,11.20
2022-12-20T22:21:26.394Z,11.30
2022-12-20T22:23:57.426Z,11.30
2022-12-20T22:26:27.500Z,11.30
2022-12-20T22:28:57.255Z,11.30
2022-12-20T22:31:26.439Z,11.40
2022-12-20T22:33:55.918Z,11.40
2022-12-20T22:36:24.401Z,11.40
2022-12-20T22:38:52.792Z,11.40
2022-12-20T22:41:24.119Z,11.50
2022-12-20T22:43:52.817Z,11.50
2022-12-20T22:46:21.283Z,11.50
2022-12-20T22:48:49.475Z,11.50
2022-12-20T22:51:19.785Z,11.60
2022-12-20T22:53:49.116Z,11.50
2022-12-20T22:56:18.375Z,11.60
2022-12-20T22:58:48.139Z,11.60
2022-12-20T23:01:18.164Z,11.60
2022-12-20T23:03:47.113Z,11.60
2022-12-20T23:06:18.233Z,11.60
2022-12-20T23:08:46.710Z,11.60
2022-12-20T23:11:35.615Z,11.60
2022-12-20T23:14:22.945Z,11.70
2022-12-20T23:16:51.824Z,11.60
2022-12-20T23:19:20.212Z,11.60
2022-12-20T23:22:05.700Z,11.60
2022-12-20T23:24:33.909Z,11.60
2022-12-20T23:27:03.151Z,11.60
2022-12-20T23:29:32.908Z,11.60
2022-12-20T23:32:01.264Z,11.50
2022-12-20T23:34:29.483Z,11.60
2022-12-20T23:36:57.779Z,11.50
2022-12-20T23:39:26.062Z,11.50
2022-12-20T23:41:54.211Z,11.50
2022-12-20T23:44:22.497Z,11.50
2022-12-20T23:46:52.022Z,11.50
2022-12-20T23:49:20.247Z,11.50
2022-12-20T23:51:48.437Z,11.60
2022-12-20T23:54:19.495Z,11.60
2022-12-20T23:56:47.752Z,11.50
2022-12-20T23:59:16.578Z,11.50
